METAR Data
IDs: Format: Raw Decoded Include TAF

Data at: 0224 UTC 25 Feb 2021

LSGG 250220Z AUTO 25003KT CAVOK 02/01 Q1031 NOSIG